sensor_id;sensor_type;location;lat;lon;timestamp;P1;durP1;ratioP1;P2;durP2;ratioP2
49444;SDS011;35323;43.080;-81.378;2023-05-19T00:00:02;1.98;;;1.58;;
49444;SDS011;35323;43.080;-81.378;2023-05-19T00:02:30;4.00;;;1.67;;
49444;SDS011;35323;43.080;-81.378;2023-05-19T00:05:00;6.32;;;1.73;;
49444;SDS011;35323;43.080;-81.378;2023-05-19T00:07:29;1.83;;;1.20;;
49444;SDS011;35323;43.080;-81.378;2023-05-19T00:09:57;2.03;;;1.60;;
49444;SDS011;35323;43.080;-81.378;2023-05-19T00:12:25;11.52;;;1.83;;
49444;SDS011;35323;43.080;-81.378;2023-05-19T00:14:53;5.72;;;1.92;;
49444;SDS011;35323;43.080;-81.378;2023-05-19T00:17:20;5.75;;;1.58;;
49444;SDS011;35323;43.080;-81.378;2023-05-19T00:19:48;3.22;;;1.30;;
49444;SDS011;35323;43.080;-81.378;2023-05-19T00:22:16;2.92;;;1.63;;
49444;SDS011;35323;43.080;-81.378;2023-05-19T00:24:43;3.78;;;2.15;;
49444;SDS011;35323;43.080;-81.378;2023-05-19T00:27:11;3.55;;;1.75;;
49444;SDS011;35323;43.080;-81.378;2023-05-19T00:29:39;4.13;;;1.48;;
49444;SDS011;35323;43.080;-81.378;2023-05-19T00:32:07;7.03;;;1.73;;
49444;SDS011;35323;43.080;-81.378;2023-05-19T00:34:35;8.00;;;2.25;;
49444;SDS011;35323;43.080;-81.378;2023-05-19T00:37:03;9.20;;;2.85;;
49444;SDS011;35323;43.080;-81.378;2023-05-19T00:39:30;6.82;;;2.95;;
49444;SDS011;35323;43.080;-81.378;2023-05-19T00:41:58;7.90;;;2.85;;
49444;SDS011;35323;43.080;-81.378;2023-05-19T00:44:25;8.00;;;3.35;;
49444;SDS011;35323;43.080;-81.378;2023-05-19T00:46:53;7.07;;;2.70;;
49444;SDS011;35323;43.080;-81.378;2023-05-19T00:49:21;13.10;;;3.60;;
49444;SDS011;35323;43.080;-81.378;2023-05-19T00:51:48;7.85;;;3.03;;
49444;SDS011;35323;43.080;-81.378;2023-05-19T00:54:16;5.30;;;2.03;;
49444;SDS011;35323;43.080;-81.378;2023-05-19T00:56:44;6.03;;;1.55;;
49444;SDS011;35323;43.080;-81.378;2023-05-19T00:59:12;2.38;;;1.65;;
49444;SDS011;35323;43.080;-81.378;2023-05-19T01:01:40;7.78;;;1.73;;
49444;SDS011;35323;43.080;-81.378;2023-05-19T01:04:08;8.48;;;2.42;;
49444;SDS011;35323;43.080;-81.378;2023-05-19T01:06:40;5.40;;;2.53;;
49444;SDS011;35323;43.080;-81.378;2023-05-19T01:09:07;6.28;;;1.73;;
49444;SDS011;35323;43.080;-81.378;2023-05-19T01:11:35;4.60;;;2.00;;
49444;SDS011;35323;43.080;-81.378;2023-05-19T01:14:03;8.68;;;3.15;;
49444;SDS011;35323;43.080;-81.378;2023-05-19T01:16:41;6.35;;;3.25;;
49444;SDS011;35323;43.080;-81.378;2023-05-19T01:27:23;9.82;;;3.08;;
49444;SDS011;35323;43.080;-81.378;2023-05-19T01:30:29;7.82;;;2.10;;
49444;SDS011;35323;43.080;-81.378;2023-05-19T01:32:56;6.25;;;2.47;;
49444;SDS011;35323;43.080;-81.378;2023-05-19T01:35:25;8.85;;;2.70;;
49444;SDS011;35323;43.080;-81.378;2023-05-19T01:37:53;10.25;;;3.05;;
49444;SDS011;35323;43.080;-81.378;2023-05-19T01:40:22;11.40;;;3.72;;
49444;SDS011;35323;43.080;-81.378;2023-05-19T01:42:54;8.10;;;2.38;;
49444;SDS011;35323;43.080;-81.378;2023-05-19T01:45:23;4.60;;;2.15;;
49444;SDS011;35323;43.080;-81.378;2023-05-19T01:47:55;6.50;;;2.45;;
49444;SDS011;35323;43.080;-81.378;2023-05-19T01:50:23;5.63;;;2.20;;
49444;SDS011;35323;43.080;-81.378;2023-05-19T01:52:51;5.10;;;2.28;;
49444;SDS011;35323;43.080;-81.378;2023-05-19T01:55:19;9.30;;;2.83;;
49444;SDS011;35323;43.080;-81.378;2023-05-19T01:57:59;5.13;;;2.60;;
49444;SDS011;35323;43.080;-81.378;2023-05-19T02:05:48;7.47;;;2.22;;
49444;SDS011;35323;43.080;-81.378;2023-05-19T02:10:59;4.72;;;1.92;;
49444;SDS011;35323;43.080;-81.378;2023-05-19T02:13:30;3.97;;;1.83;;
49444;SDS011;35323;43.080;-81.378;2023-05-19T02:16:04;4.38;;;2.45;;
49444;SDS011;35323;43.080;-81.378;2023-05-19T02:18:32;8.48;;;3.55;;
49444;SDS011;35323;43.080;-81.378;2023-05-19T02:21:01;9.23;;;2.25;;
49444;SDS011;35323;43.080;-81.378;2023-05-19T02:23:28;4.18;;;3.15;;
49444;SDS011;35323;43.080;-81.378;2023-05-19T02:25:56;6.18;;;2.47;;
49444;SDS011;35323;43.080;-81.378;2023-05-19T02:28:24;3.10;;;1.83;;
49444;SDS011;35323;43.080;-81.378;2023-05-19T02:30:54;2.88;;;2.35;;
49444;SDS011;35323;43.080;-81.378;2023-05-19T02:33:22;9.02;;;2.33;;
49444;SDS011;35323;43.080;-81.378;2023-05-19T02:35:52;4.70;;;2.42;;
49444;SDS011;35323;43.080;-81.378;2023-05-19T02:38:20;4.72;;;2.35;;
49444;SDS011;35323;43.080;-81.378;2023-05-19T02:40:47;5.88;;;2.17;;
49444;SDS011;35323;43.080;-81.378;2023-05-19T02:43:15;11.73;;;2.67;;
49444;SDS011;35323;43.080;-81.378;2023-05-19T02:45:42;5.85;;;2.47;;
49444;SDS011;35323;43.080;-81.378;2023-05-19T02:48:10;2.88;;;2.40;;
49444;SDS011;35323;43.080;-81.378;2023-05-19T02:50:38;8.52;;;2.05;;
49444;SDS011;35323;43.080;-81.378;2023-05-19T02:53:05;6.45;;;2.72;;
49444;SDS011;35323;43.080;-81.378;2023-05-19T02:55:33;7.80;;;2.40;;
49444;SDS011;35323;43.080;-81.378;2023-05-19T02:58:00;2.35;;;1.88;;
49444;SDS011;35323;43.080;-81.378;2023-05-19T03:00:28;7.47;;;2.33;;
49444;SDS011;35323;43.080;-81.378;2023-05-19T03:02:56;5.05;;;2.00;;
49444;SDS011;35323;43.080;-81.378;2023-05-19T03:05:30;5.75;;;3.20;;
49444;SDS011;35323;43.080;-81.378;2023-05-19T03:07:57;7.80;;;2.25;;
49444;SDS011;35323;43.080;-81.378;2023-05-19T03:10:25;4.25;;;2.17;;
49444;SDS011;35323;43.080;-81.378;2023-05-19T03:12:56;8.45;;;2.50;;
49444;SDS011;35323;43.080;-81.378;2023-05-19T03:15:24;7.47;;;2.22;;
49444;SDS011;35323;43.080;-81.378;2023-05-19T03:17:52;7.68;;;2.80;;
49444;SDS011;35323;43.080;-81.378;2023-05-19T03:20:22;7.20;;;2.80;;
49444;SDS011;35323;43.080;-81.378;2023-05-19T03:22:51;7.43;;;2.10;;
49444;SDS011;35323;43.080;-81.378;2023-05-19T03:25:18;3.45;;;1.98;;
49444;SDS011;35323;43.080;-81.378;2023-05-19T03:27:46;4.90;;;2.40;;
49444;SDS011;35323;43.080;-81.378;2023-05-19T03:30:14;7.13;;;3.00;;
49444;SDS011;35323;43.080;-81.378;2023-05-19T03:32:52;6.97;;;2.30;;
49444;SDS011;35323;43.080;-81.378;2023-05-19T03:35:20;7.22;;;2.85;;
49444;SDS011;35323;43.080;-81.378;2023-05-19T03:37:48;4.40;;;2.45;;
49444;SDS011;35323;43.080;-81.378;2023-05-19T03:40:15;3.08;;;1.98;;
49444;SDS011;35323;43.080;-81.378;2023-05-19T03:42:45;7.97;;;2.50;;
49444;SDS011;35323;43.080;-81.378;2023-05-19T03:45:12;3.78;;;2.47;;
49444;SDS011;35323;43.080;-81.378;2023-05-19T03:47:40;5.07;;;2.30;;
49444;SDS011;35323;43.080;-81.378;2023-05-19T03:50:08;2.85;;;1.90;;
49444;SDS011;35323;43.080;-81.378;2023-05-19T03:52:35;2.97;;;2.00;;
49444;SDS011;35323;43.080;-81.378;2023-05-19T03:55:10;4.78;;;2.30;;
49444;SDS011;35323;43.080;-81.378;2023-05-19T03:57:38;8.52;;;3.03;;
49444;SDS011;35323;43.080;-81.378;2023-05-19T04:00:07;4.13;;;2.50;;
49444;SDS011;35323;43.080;-81.378;2023-05-19T04:02:37;4.05;;;2.20;;
49444;SDS011;35323;43.080;-81.378;2023-05-19T04:05:05;3.10;;;2.03;;
49444;SDS011;35323;43.080;-81.378;2023-05-19T04:07:33;3.53;;;1.83;;
49444;SDS011;35323;43.080;-81.378;2023-05-19T04:10:03;2.95;;;2.42;;
49444;SDS011;35323;43.080;-81.378;2023-05-19T04:12:30;2.78;;;1.70;;
49444;SDS011;35323;43.080;-81.378;2023-05-19T04:14:59;3.05;;;2.17;;
49444;SDS011;35323;43.080;-81.378;2023-05-19T04:17:28;6.53;;;2.20;;
49444;SDS011;35323;43.080;-81.378;2023-05-19T04:19:56;4.13;;;1.55;;
49444;SDS011;35323;43.080;-81.378;2023-05-19T04:22:27;6.18;;;3.25;;
49444;SDS011;35323;43.080;-81.378;2023-05-19T04:24:55;3.75;;;2.30;;
49444;SDS011;35323;43.080;-81.378;2023-05-19T04:27:23;3.13;;;2.22;;
49444;SDS011;35323;43.080;-81.378;2023-05-19T04:29:50;5.97;;;2.40;;
49444;SDS011;35323;43.080;-81.378;2023-05-19T04:32:18;3.47;;;1.90;;
49444;SDS011;35323;43.080;-81.378;2023-05-19T04:34:46;2.40;;;1.63;;
49444;SDS011;35323;43.080;-81.378;2023-05-19T04:37:14;4.65;;;2.78;;
49444;SDS011;35323;43.080;-81.378;2023-05-19T04:39:42;3.15;;;1.98;;
49444;SDS011;35323;43.080;-81.378;2023-05-19T04:42:11;3.10;;;1.55;;
49444;SDS011;35323;43.080;-81.378;2023-05-19T04:44:39;5.93;;;2.17;;
49444;SDS011;35323;43.080;-81.378;2023-05-19T04:47:07;3.35;;;2.00;;
49444;SDS011;35323;43.080;-81.378;2023-05-19T04:49:35;2.72;;;1.90;;
49444;SDS011;35323;43.080;-81.378;2023-05-19T04:52:06;3.13;;;1.80;;
49444;SDS011;35323;43.080;-81.378;2023-05-19T04:54:34;3.53;;;1.85;;
49444;SDS011;35323;43.080;-81.378;2023-05-19T04:57:02;2.00;;;1.20;;
49444;SDS011;35323;43.080;-81.378;2023-05-19T04:59:30;3.75;;;1.90;;
49444;SDS011;35323;43.080;-81.378;2023-05-19T05:01:57;4.13;;;1.42;;
49444;SDS011;35323;43.080;-81.378;2023-05-19T05:04:28;7.05;;;2.47;;
49444;SDS011;35323;43.080;-81.378;2023-05-19T05:06:55;10.98;;;2.70;;
49444;SDS011;35323;43.080;-81.378;2023-05-19T05:09:23;3.67;;;1.73;;
49444;SDS011;35323;43.080;-81.378;2023-05-19T05:11:51;8.55;;;2.08;;
49444;SDS011;35323;43.080;-81.378;2023-05-19T05:14:18;3.67;;;1.48;;
49444;SDS011;35323;43.080;-81.378;2023-05-19T05:16:47;1.52;;;1.30;;
49444;SDS011;35323;43.080;-81.378;2023-05-19T05:19:15;2.80;;;1.88;;
49444;SDS011;35323;43.080;-81.378;2023-05-19T05:21:42;3.17;;;2.25;;
49444;SDS011;35323;43.080;-81.378;2023-05-19T05:24:10;2.03;;;1.45;;
49444;SDS011;35323;43.080;-81.378;2023-05-19T05:26:38;2.90;;;2.13;;
49444;SDS011;35323;43.080;-81.378;2023-05-19T05:29:06;2.05;;;1.35;;
49444;SDS011;35323;43.080;-81.378;2023-05-19T05:31:34;3.88;;;1.85;;
49444;SDS011;35323;43.080;-81.378;2023-05-19T05:34:03;2.65;;;1.60;;
49444;SDS011;35323;43.080;-81.378;2023-05-19T05:36:31;2.05;;;1.67;;
49444;SDS011;35323;43.080;-81.378;2023-05-19T05:39:01;4.45;;;2.15;;
49444;SDS011;35323;43.080;-81.378;2023-05-19T05:41:28;3.40;;;2.67;;
49444;SDS011;35323;43.080;-81.378;2023-05-19T05:44:01;5.55;;;4.45;;
49444;SDS011;35323;43.080;-81.378;2023-05-19T05:46:29;4.57;;;2.38;;
49444;SDS011;35323;43.080;-81.378;2023-05-19T05:48:56;5.18;;;3.38;;
49444;SDS011;35323;43.080;-81.378;2023-05-19T05:51:24;2.63;;;1.55;;
49444;SDS011;35323;43.080;-81.378;2023-05-19T05:53:53;3.22;;;2.38;;
49444;SDS011;35323;43.080;-81.378;2023-05-19T05:56:20;4.07;;;2.13;;
49444;SDS011;35323;43.080;-81.378;2023-05-19T05:58:48;4.00;;;2.53;;
49444;SDS011;35323;43.080;-81.378;2023-05-19T06:01:16;1.77;;;1.27;;
49444;SDS011;35323;43.080;-81.378;2023-05-19T06:03:46;3.47;;;2.17;;
49444;SDS011;35323;43.080;-81.378;2023-05-19T06:06:13;2.63;;;1.88;;
49444;SDS011;35323;43.080;-81.378;2023-05-19T06:08:41;2.20;;;1.35;;
49444;SDS011;35323;43.080;-81.378;2023-05-19T06:11:10;7.00;;;2.83;;
49444;SDS011;35323;43.080;-81.378;2023-05-19T06:13:38;8.45;;;2.70;;
49444;SDS011;35323;43.080;-81.378;2023-05-19T06:16:08;3.38;;;2.08;;
49444;SDS011;35323;43.080;-81.378;2023-05-19T06:18:38;2.05;;;1.60;;
49444;SDS011;35323;43.080;-81.378;2023-05-19T06:21:06;4.97;;;2.88;;
49444;SDS011;35323;43.080;-81.378;2023-05-19T06:23:36;3.40;;;2.28;;
49444;SDS011;35323;43.080;-81.378;2023-05-19T06:26:04;2.53;;;1.80;;
49444;SDS011;35323;43.080;-81.378;2023-05-19T06:28:32;2.28;;;1.83;;
49444;SDS011;35323;43.080;-81.378;2023-05-19T06:31:01;5.13;;;1.98;;
49444;SDS011;35323;43.080;-81.378;2023-05-19T06:33:29;3.50;;;2.22;;
49444;SDS011;35323;43.080;-81.378;2023-05-19T06:35:56;2.95;;;1.98;;
49444;SDS011;35323;43.080;-81.378;2023-05-19T06:38:27;5.25;;;1.63;;
49444;SDS011;35323;43.080;-81.378;2023-05-19T06:40:54;3.42;;;2.38;;
49444;SDS011;35323;43.080;-81.378;2023-05-19T06:43:22;2.15;;;1.75;;
49444;SDS011;35323;43.080;-81.378;2023-05-19T06:45:51;2.38;;;1.73;;
49444;SDS011;35323;43.080;-81.378;2023-05-19T06:48:19;2.92;;;1.98;;
49444;SDS011;35323;43.080;-81.378;2023-05-19T06:50:47;3.58;;;1.95;;
49444;SDS011;35323;43.080;-81.378;2023-05-19T06:53:15;4.00;;;2.63;;
49444;SDS011;35323;43.080;-81.378;2023-05-19T06:55:43;3.42;;;2.17;;
49444;SDS011;35323;43.080;-81.378;2023-05-19T06:58:24;2.78;;;1.92;;
49444;SDS011;35323;43.080;-81.378;2023-05-19T07:00:52;3.88;;;2.55;;
49444;SDS011;35323;43.080;-81.378;2023-05-19T07:03:20;3.08;;;2.42;;
49444;SDS011;35323;43.080;-81.378;2023-05-19T07:05:50;3.95;;;2.85;;
49444;SDS011;35323;43.080;-81.378;2023-05-19T07:08:18;5.70;;;2.35;;
49444;SDS011;35323;43.080;-81.378;2023-05-19T07:10:46;2.50;;;2.03;;
49444;SDS011;35323;43.080;-81.378;2023-05-19T07:13:13;2.45;;;1.83;;
49444;SDS011;35323;43.080;-81.378;2023-05-19T07:15:41;2.13;;;1.80;;
49444;SDS011;35323;43.080;-81.378;2023-05-19T07:18:09;2.53;;;1.90;;
49444;SDS011;35323;43.080;-81.378;2023-05-19T07:20:37;2.92;;;1.67;;
49444;SDS011;35323;43.080;-81.378;2023-05-19T07:23:07;2.35;;;1.67;;
49444;SDS011;35323;43.080;-81.378;2023-05-19T07:25:35;3.92;;;3.03;;
49444;SDS011;35323;43.080;-81.378;2023-05-19T07:28:02;2.40;;;1.92;;
49444;SDS011;35323;43.080;-81.378;2023-05-19T07:30:30;4.32;;;2.25;;
49444;SDS011;35323;43.080;-81.378;2023-05-19T07:32:58;2.67;;;2.03;;
49444;SDS011;35323;43.080;-81.378;2023-05-19T07:35:25;3.35;;;1.98;;
49444;SDS011;35323;43.080;-81.378;2023-05-19T07:37:53;3.58;;;1.67;;
49444;SDS011;35323;43.080;-81.378;2023-05-19T07:40:20;6.53;;;1.83;;
49444;SDS011;35323;43.080;-81.378;2023-05-19T07:42:49;5.30;;;1.70;;
49444;SDS011;35323;43.080;-81.378;2023-05-19T07:45:17;3.25;;;2.28;;
49444;SDS011;35323;43.080;-81.378;2023-05-19T07:47:44;5.68;;;2.08;;
49444;SDS011;35323;43.080;-81.378;2023-05-19T07:50:15;3.30;;;2.08;;
49444;SDS011;35323;43.080;-81.378;2023-05-19T07:52:42;2.65;;;2.03;;
49444;SDS011;35323;43.080;-81.378;2023-05-19T07:55:28;5.43;;;2.10;;
49444;SDS011;35323;43.080;-81.378;2023-05-19T07:57:57;3.92;;;1.60;;
49444;SDS011;35323;43.080;-81.378;2023-05-19T08:00:25;2.33;;;2.05;;
49444;SDS011;35323;43.080;-81.378;2023-05-19T08:02:55;3.28;;;1.75;;
49444;SDS011;35323;43.080;-81.378;2023-05-19T08:05:23;3.00;;;1.67;;
49444;SDS011;35323;43.080;-81.378;2023-05-19T08:07:54;1.83;;;1.67;;
49444;SDS011;35323;43.080;-81.378;2023-05-19T08:10:31;6.35;;;3.45;;
49444;SDS011;35323;43.080;-81.378;2023-05-19T08:12:59;3.92;;;2.50;;
49444;SDS011;35323;43.080;-81.378;2023-05-19T08:15:27;2.60;;;1.55;;
49444;SDS011;35323;43.080;-81.378;2023-05-19T08:17:55;3.40;;;1.70;;
49444;SDS011;35323;43.080;-81.378;2023-05-19T08:20:22;2.70;;;1.80;;
49444;SDS011;35323;43.080;-81.378;2023-05-19T08:22:50;3.97;;;1.83;;
49444;SDS011;35323;43.080;-81.378;2023-05-19T08:25:21;2.78;;;1.80;;
49444;SDS011;35323;43.080;-81.378;2023-05-19T08:27:54;4.20;;;2.45;;
49444;SDS011;35323;43.080;-81.378;2023-05-19T08:30:27;2.92;;;1.80;;
49444;SDS011;35323;43.080;-81.378;2023-05-19T08:35:29;1.65;;;1.50;;
49444;SDS011;35323;43.080;-81.378;2023-05-19T08:37:57;2.55;;;2.05;;
49444;SDS011;35323;43.080;-81.378;2023-05-19T08:40:27;4.10;;;1.83;;
49444;SDS011;35323;43.080;-81.378;2023-05-19T08:42:58;4.07;;;1.80;;
49444;SDS011;35323;43.080;-81.378;2023-05-19T08:45:25;3.40;;;2.42;;
49444;SDS011;35323;43.080;-81.378;2023-05-19T08:47:53;2.95;;;1.95;;
49444;SDS011;35323;43.080;-81.378;2023-05-19T08:50:28;2.83;;;2.00;;
49444;SDS011;35323;43.080;-81.378;2023-05-19T08:53:11;3.58;;;2.15;;
49444;SDS011;35323;43.080;-81.378;2023-05-19T08:58:40;3.67;;;2.17;;
49444;SDS011;35323;43.080;-81.378;2023-05-19T09:01:12;6.47;;;3.05;;
49444;SDS011;35323;43.080;-81.378;2023-05-19T09:03:40;2.25;;;2.05;;
49444;SDS011;35323;43.080;-81.378;2023-05-19T09:06:09;3.85;;;1.73;;
49444;SDS011;35323;43.080;-81.378;2023-05-19T09:08:39;2.88;;;2.22;;
49444;SDS011;35323;43.080;-81.378;2023-05-19T09:11:10;3.45;;;2.63;;
49444;SDS011;35323;43.080;-81.378;2023-05-19T09:13:38;2.55;;;1.65;;
49444;SDS011;35323;43.080;-81.378;2023-05-19T09:16:05;6.10;;;2.85;;
49444;SDS011;35323;43.080;-81.378;2023-05-19T09:18:36;6.72;;;2.08;;
49444;SDS011;35323;43.080;-81.378;2023-05-19T09:21:04;5.97;;;2.83;;
49444;SDS011;35323;43.080;-81.378;2023-05-19T09:23:33;4.32;;;2.00;;
49444;SDS011;35323;43.080;-81.378;2023-05-19T09:26:01;4.93;;;2.97;;
49444;SDS011;35323;43.080;-81.378;2023-05-19T09:28:30;3.42;;;3.20;;
49444;SDS011;35323;43.080;-81.378;2023-05-19T09:30:59;7.30;;;2.63;;
49444;SDS011;35323;43.080;-81.378;2023-05-19T09:33:27;2.35;;;1.92;;
49444;SDS011;35323;43.080;-81.378;2023-05-19T09:35:55;3.00;;;2.13;;
49444;SDS011;35323;43.080;-81.378;2023-05-19T09:38:23;18.23;;;3.67;;
49444;SDS011;35323;43.080;-81.378;2023-05-19T09:40:53;3.10;;;2.35;;
49444;SDS011;35323;43.080;-81.378;2023-05-19T09:43:23;3.10;;;2.40;;
49444;SDS011;35323;43.080;-81.378;2023-05-19T09:45:54;2.75;;;2.08;;
49444;SDS011;35323;43.080;-81.378;2023-05-19T09:48:24;3.13;;;2.00;;
49444;SDS011;35323;43.080;-81.378;2023-05-19T09:50:52;5.28;;;2.53;;
49444;SDS011;35323;43.080;-81.378;2023-05-19T09:53:20;3.88;;;2.17;;
49444;SDS011;35323;43.080;-81.378;2023-05-19T09:55:48;3.55;;;3.25;;
49444;SDS011;35323;43.080;-81.378;2023-05-19T09:58:17;6.18;;;2.80;;
49444;SDS011;35323;43.080;-81.378;2023-05-19T10:00:46;4.88;;;2.63;;
49444;SDS011;35323;43.080;-81.378;2023-05-19T10:03:13;4.50;;;2.47;;
49444;SDS011;35323;43.080;-81.378;2023-05-19T10:05:43;8.18;;;3.80;;
49444;SDS011;35323;43.080;-81.378;2023-05-19T10:08:11;4.07;;;3.08;;
49444;SDS011;35323;43.080;-81.378;2023-05-19T10:10:40;3.97;;;2.63;;
49444;SDS011;35323;43.080;-81.378;2023-05-19T10:13:10;4.50;;;2.70;;
49444;SDS011;35323;43.080;-81.378;2023-05-19T10:15:41;2.97;;;2.33;;
49444;SDS011;35323;43.080;-81.378;2023-05-19T10:18:24;5.60;;;3.85;;
49444;SDS011;35323;43.080;-81.378;2023-05-19T10:20:52;3.90;;;3.15;;
49444;SDS011;35323;43.080;-81.378;2023-05-19T10:23:20;7.97;;;4.10;;
49444;SDS011;35323;43.080;-81.378;2023-05-19T10:25:49;3.90;;;2.92;;
49444;SDS011;35323;43.080;-81.378;2023-05-19T10:28:17;3.03;;;2.75;;
49444;SDS011;35323;43.080;-81.378;2023-05-19T10:30:50;6.00;;;2.67;;
49444;SDS011;35323;43.080;-81.378;2023-05-19T10:33:19;5.13;;;2.73;;
49444;SDS011;35323;43.080;-81.378;2023-05-19T10:41:01;7.13;;;4.72;;
49444;SDS011;35323;43.080;-81.378;2023-05-19T10:43:48;3.97;;;2.92;;
49444;SDS011;35323;43.080;-81.378;2023-05-19T10:46:21;6.05;;;3.20;;
49444;SDS011;35323;43.080;-81.378;2023-05-19T10:48:49;4.25;;;3.35;;
49444;SDS011;35323;43.080;-81.378;2023-05-19T10:51:19;4.28;;;3.58;;
49444;SDS011;35323;43.080;-81.378;2023-05-19T10:53:46;8.85;;;5.63;;
49444;SDS011;35323;43.080;-81.378;2023-05-19T10:56:29;6.72;;;3.00;;
49444;SDS011;35323;43.080;-81.378;2023-05-19T10:58:59;11.17;;;4.07;;
49444;SDS011;35323;43.080;-81.378;2023-05-19T11:01:34;5.72;;;3.25;;
49444;SDS011;35323;43.080;-81.378;2023-05-19T11:04:03;6.10;;;4.38;;
49444;SDS011;35323;43.080;-81.378;2023-05-19T11:06:32;8.43;;;3.25;;
49444;SDS011;35323;43.080;-81.378;2023-05-19T11:09:12;4.10;;;2.67;;
49444;SDS011;35323;43.080;-81.378;2023-05-19T11:12:00;5.70;;;4.15;;
49444;SDS011;35323;43.080;-81.378;2023-05-19T11:14:29;4.40;;;3.25;;
49444;SDS011;35323;43.080;-81.378;2023-05-19T11:16:58;9.98;;;2.28;;
49444;SDS011;35323;43.080;-81.378;2023-05-19T11:21:55;4.80;;;3.35;;
49444;SDS011;35323;43.080;-81.378;2023-05-19T11:29:51;5.40;;;3.25;;
49444;SDS011;35323;43.080;-81.378;2023-05-19T11:32:24;4.30;;;3.25;;
49444;SDS011;35323;43.080;-81.378;2023-05-19T11:34:52;4.85;;;3.22;;
49444;SDS011;35323;43.080;-81.378;2023-05-19T11:37:21;6.90;;;3.25;;
49444;SDS011;35323;43.080;-81.378;2023-05-19T11:39:50;7.35;;;5.10;;
49444;SDS011;35323;43.080;-81.378;2023-05-19T11:42:18;7.90;;;3.40;;
49444;SDS011;35323;43.080;-81.378;2023-05-19T11:44:46;6.22;;;3.42;;
49444;SDS011;35323;43.080;-81.378;2023-05-19T11:47:14;6.15;;;4.50;;
49444;SDS011;35323;43.080;-81.378;2023-05-19T11:49:42;9.70;;;4.82;;
49444;SDS011;35323;43.080;-81.378;2023-05-19T11:52:10;9.02;;;4.97;;
49444;SDS011;35323;43.080;-81.378;2023-05-19T11:54:38;8.38;;;5.63;;
49444;SDS011;35323;43.080;-81.378;2023-05-19T11:57:08;6.35;;;4.78;;
49444;SDS011;35323;43.080;-81.378;2023-05-19T11:59:40;9.60;;;4.25;;
49444;SDS011;35323;43.080;-81.378;2023-05-19T12:04:39;7.00;;;4.07;;
49444;SDS011;35323;43.080;-81.378;2023-05-19T12:07:07;11.20;;;6.15;;
49444;SDS011;35323;43.080;-81.378;2023-05-19T12:09:35;6.68;;;5.10;;
49444;SDS011;35323;43.080;-81.378;2023-05-19T12:12:03;8.07;;;6.25;;
49444;SDS011;35323;43.080;-81.378;2023-05-19T12:14:31;8.65;;;5.10;;
49444;SDS011;35323;43.080;-81.378;2023-05-19T12:16:58;8.30;;;5.88;;
49444;SDS011;35323;43.080;-81.378;2023-05-19T12:19:35;9.77;;;5.60;;
49444;SDS011;35323;43.080;-81.378;2023-05-19T12:22:05;7.18;;;4.38;;
49444;SDS011;35323;43.080;-81.378;2023-05-19T12:24:33;9.02;;;4.93;;
49444;SDS011;35323;43.080;-81.378;2023-05-19T12:27:08;7.43;;;5.47;;
49444;SDS011;35323;43.080;-81.378;2023-05-19T12:29:36;7.55;;;6.05;;
49444;SDS011;35323;43.080;-81.378;2023-05-19T12:32:06;7.03;;;4.38;;
49444;SDS011;35323;43.080;-81.378;2023-05-19T12:34:37;7.88;;;6.50;;
49444;SDS011;35323;43.080;-81.378;2023-05-19T12:37:05;7.53;;;5.38;;
49444;SDS011;35323;43.080;-81.378;2023-05-19T12:39:32;6.30;;;5.05;;
49444;SDS011;35323;43.080;-81.378;2023-05-19T12:42:06;7.72;;;4.97;;
49444;SDS011;35323;43.080;-81.378;2023-05-19T12:44:45;8.82;;;5.82;;
49444;SDS011;35323;43.080;-81.378;2023-05-19T12:47:14;12.30;;;5.85;;
49444;SDS011;35323;43.080;-81.378;2023-05-19T12:49:55;10.10;;;6.25;;
49444;SDS011;35323;43.080;-81.378;2023-05-19T12:52:23;6.60;;;5.53;;
49444;SDS011;35323;43.080;-81.378;2023-05-19T12:55:04;6.07;;;5.45;;
49444;SDS011;35323;43.080;-81.378;2023-05-19T12:57:33;7.22;;;4.78;;
49444;SDS011;35323;43.080;-81.378;2023-05-19T13:00:02;10.27;;;6.05;;
49444;SDS011;35323;43.080;-81.378;2023-05-19T13:02:33;10.68;;;7.45;;
49444;SDS011;35323;43.080;-81.378;2023-05-19T13:05:02;8.30;;;5.13;;
49444;SDS011;35323;43.080;-81.378;2023-05-19T13:07:30;10.23;;;5.30;;
49444;SDS011;35323;43.080;-81.378;2023-05-19T13:10:01;7.20;;;5.72;;
49444;SDS011;35323;43.080;-81.378;2023-05-19T13:12:30;13.60;;;6.15;;
49444;SDS011;35323;43.080;-81.378;2023-05-19T13:14:57;12.73;;;6.95;;
49444;SDS011;35323;43.080;-81.378;2023-05-19T13:17:26;9.73;;;6.03;;
49444;SDS011;35323;43.080;-81.378;2023-05-19T13:19:53;7.40;;;6.18;;
49444;SDS011;35323;43.080;-81.378;2023-05-19T13:22:21;13.27;;;7.55;;
49444;SDS011;35323;43.080;-81.378;2023-05-19T13:24:48;7.57;;;5.25;;
49444;SDS011;35323;43.080;-81.378;2023-05-19T13:27:17;7.30;;;6.03;;
49444;SDS011;35323;43.080;-81.378;2023-05-19T13:29:44;9.68;;;7.78;;
49444;SDS011;35323;43.080;-81.378;2023-05-19T13:32:12;10.45;;;6.68;;
49444;SDS011;35323;43.080;-81.378;2023-05-19T13:34:40;12.65;;;7.32;;
49444;SDS011;35323;43.080;-81.378;2023-05-19T13:37:07;9.07;;;5.50;;
49444;SDS011;35323;43.080;-81.378;2023-05-19T13:39:36;13.35;;;7.78;;
49444;SDS011;35323;43.080;-81.378;2023-05-19T13:42:04;9.50;;;6.63;;
49444;SDS011;35323;43.080;-81.378;2023-05-19T13:44:32;7.43;;;6.47;;
49444;SDS011;35323;43.080;-81.378;2023-05-19T13:46:59;15.13;;;6.57;;
49444;SDS011;35323;43.080;-81.378;2023-05-19T13:49:27;7.00;;;5.70;;
49444;SDS011;35323;43.080;-81.378;2023-05-19T13:51:55;8.77;;;7.18;;
49444;SDS011;35323;43.080;-81.378;2023-05-19T13:54:26;12.88;;;7.15;;
49444;SDS011;35323;43.080;-81.378;2023-05-19T13:56:53;9.55;;;6.25;;
49444;SDS011;35323;43.080;-81.378;2023-05-19T13:59:21;8.35;;;6.65;;
49444;SDS011;35323;43.080;-81.378;2023-05-19T14:01:48;9.35;;;7.80;;
49444;SDS011;35323;43.080;-81.378;2023-05-19T14:04:17;16.58;;;7.88;;
49444;SDS011;35323;43.080;-81.378;2023-05-19T14:06:45;11.32;;;5.90;;
49444;SDS011;35323;43.080;-81.378;2023-05-19T14:09:13;8.68;;;5.10;;
49444;SDS011;35323;43.080;-81.378;2023-05-19T14:11:42;12.20;;;6.88;;
49444;SDS011;35323;43.080;-81.378;2023-05-19T14:14:10;8.98;;;7.75;;
49444;SDS011;35323;43.080;-81.378;2023-05-19T14:16:38;11.40;;;6.85;;
49444;SDS011;35323;43.080;-81.378;2023-05-19T14:19:06;9.73;;;7.88;;
49444;SDS011;35323;43.080;-81.378;2023-05-19T14:21:34;10.77;;;7.22;;
49444;SDS011;35323;43.080;-81.378;2023-05-19T14:24:02;8.43;;;6.40;;
49444;SDS011;35323;43.080;-81.378;2023-05-19T14:26:30;8.02;;;5.05;;
49444;SDS011;35323;43.080;-81.378;2023-05-19T14:28:58;12.15;;;6.88;;
49444;SDS011;35323;43.080;-81.378;2023-05-19T14:31:27;9.82;;;6.72;;
49444;SDS011;35323;43.080;-81.378;2023-05-19T14:33:55;7.50;;;5.20;;
49444;SDS011;35323;43.080;-81.378;2023-05-19T14:36:23;8.18;;;5.95;;
49444;SDS011;35323;43.080;-81.378;2023-05-19T14:38:50;9.77;;;6.28;;
49444;SDS011;35323;43.080;-81.378;2023-05-19T14:41:18;8.55;;;6.78;;
49444;SDS011;35323;43.080;-81.378;2023-05-19T14:43:45;10.52;;;6.15;;
49444;SDS011;35323;43.080;-81.378;2023-05-19T14:46:14;9.90;;;6.55;;
49444;SDS011;35323;43.080;-81.378;2023-05-19T14:48:41;8.55;;;6.38;;
49444;SDS011;35323;43.080;-81.378;2023-05-19T14:51:09;10.25;;;7.07;;
49444;SDS011;35323;43.080;-81.378;2023-05-19T14:53:37;7.57;;;5.32;;
49444;SDS011;35323;43.080;-81.378;2023-05-19T14:56:04;9.57;;;5.75;;
49444;SDS011;35323;43.080;-81.378;2023-05-19T14:58:32;10.68;;;6.50;;
49444;SDS011;35323;43.080;-81.378;2023-05-19T15:00:59;5.93;;;4.43;;
49444;SDS011;35323;43.080;-81.378;2023-05-19T15:03:27;7.22;;;5.68;;
49444;SDS011;35323;43.080;-81.378;2023-05-19T15:05:55;7.55;;;5.68;;
49444;SDS011;35323;43.080;-81.378;2023-05-19T15:08:22;11.35;;;5.93;;